SEASEATTLE-TACOMA INTL
METARs for nearby airports:
N 0 432' KSEA 290453Z 15009KT 10SM -RA OVC043 10/06 A3017
NE 4 32' KRNT 290453Z 11003KT 10SM OVC048 11/07 A3017
N 4 21' KBFI 290453Z 16009KT 10SM OVC046 11/06 A3017
SW 15 294' KTIW 290453Z 19007KT 10SM -RA OVC049 08/07 A3016
W 18 443' KPWT 290455Z 18012G16KT 10SM OVC033 07/06 A3018
S 19 322' KTCM 290458Z 20015G23KT 10SM -RA SCT030 BKN038 10/06 A3016
S 20 537' KPLU 290455Z 19005KT 10SM 10/07 A3016
SW 24 305' KGRF 290508Z 17017G24KT 10SM BKN048 10/06 A3015
N 27 607' KPAE 290453Z 14016G29KT 10SM OVC036 10/04 A3014
W 36 272' KSHN 290453Z 13003KT 7SM -RA FEW020 OVC025 08/07 A3013
SW 37 207' KOLM 290454Z 19009KT 10SM -RA OVC047 09/08 A3016
N 43 141' KAWO 290455Z 14012G18KT 10SM BKN029 OVC035 09/03 A3017
SW 53 177' KCLS 290515Z 18012KT 7SM -DZ FEW023 SCT042 OVC050 09/06 A3018
N 55 47' KNUW 290456Z 15020G27KT 10SM -RA SCT012 BKN018 OVC040 11/06 A3015
NW 60 13' KNOW 290455Z 00000KT 10SM OVC085 09/08 A3008
N 61 145' KBVS 290455Z 13008G15KT 8SM OVC023 09/07 A3014
NW 62 291' KCLM 290453Z 00000KT 10SM FEW060 OVC090 08/07 A3008
NW 70 112' KFHR 290453Z 12009KT 10SM -RA OVC013 09/08 A3011
SW 72 17' KHQM 290453Z 16019G25KT 4SM -RA BR BKN012 BKN022 OVC034 09/09 A3013
E 76 1763' KELN 290453Z 26005KT 10SM OVC060 08/03 A3015
N 79 34' KORS 290515Z 18005G14KT 4SM -RA FEW013 SCT018 BKN037 09/08 A3009
N 81 170' KBLI 290453Z 15009KT 6SM -RA BR BKN019 OVC025 09/08 A3012
S 83 20' KKLS 290456Z 17010G22KT 10SM -RA OVC055 11/01 A3022
NW 84 64' CYYJ 290500Z 14008KT 12SM -RA VCFG FEW004 FEW008 OVC050 09/08 A3008
E 85 1248' KEAT 290455Z 35006KT 10SM BKN050 OVC070 09/03 A3014
SE 89 1098' KYKM 290453Z 00000KT 10SM BKN090 10/03 A3017
W 95 193' KUIL 290453Z VRB05KT 4SM RA BR OVC005 09/09 A3005
TAFs for nearby airports:
N 0 432' KSEA TAF
  AMD KSEA 290221Z 2902/3006 19012KT P6SM -RA SCT035 OVC060
  FM291000 16012KT 4SM RA BR OVC015
  FM291500 22012G22KT P6SM -RA BKN015 OVC030
  FM292000 22012G22KT P6SM VCSH SCT020 BKN040
N 4 21' KBFI TAF
  AMD KBFI 290434Z 2905/2924 16011KT P6SM -RA OVC040
  FM291000 16012KT 5SM RA BR OVC018
  FM291500 22012G22KT P6SM -RA BKN018 OVC035
  FM292000 22012G22KT P6SM VCSH SCT020 BKN040
S 19 322' KTCM TAF
  AMD KTCM 290135Z 2901/3003 18012KT 9000 -RA BKN030 620509 QNH3010INS
  TEMPO 2901/2909 BKN015
  BECMG 2915/2916 18010G20KT 9000 -RA BKN010 OVC020 620709 QNH2999INS
  TEMPO 2916/2921 18020G30KT 510003
  BECMG 2920/2921 18010G20KT 9000 -RA BKN005 BKN010 OVC020 620609 QNH2994INS TX14/2918Z TN07/2912Z
SW 24 305' KGRF TAF
  AMD KGRF 282313Z 2823/3003 12012G18KT 9000 -RA BKN030 620509 QNH3010INS
  BECMG 2915/2916 18010G20KT 9000 -RA BKN010 OVC020 620709 QNH2999INS
  TEMPO 2916/2921 18020G30KT 510003
  BECMG 2920/2921 18010G20KT 9000 -RA BKN005 BKN010 OVC020 620609 QNH2994INS TX14/2823Z TN07/2912Z
N 27 607' KPAE TAF
  AMD KPAE 290126Z 2901/2924 15018G28KT P6SM VCSH FEW022 BKN035 OVC070
  TEMPO 2901/2904 -RA
  FM291000 18012KT 4SM RA BR OVC012
  FM291500 22012G22KT P6SM -RA BKN015 OVC030
  FM292000 22012G22KT P6SM VCSH SCT020 BKN040
SW 37 207' KOLM TAF
  AMD KOLM 290127Z 2901/2924 19011KT P6SM OVC035
  TEMPO 2901/2905 5SM -RA BR OVC025
  FM291000 18012KT 4SM RA BR OVC015
  FM291500 22012G22KT P6SM -RA BKN015 OVC030
  FM292000 22012G22KT P6SM VCSH SCT020 BKN040
N 55 47' KNUW TAF KNUW 2823/2923 15020G32KT 9999 VCSH SCT012 BKN020 OVC035 650509 651406 540009 540903 QNH3014INS
  TEMPO 2823/2903 14024G35KT 9000 -SHRA BR SCT025 BKN040 OVC080
  FM290300 15018G30KT 9999 -RA BKN020 BKN035 OVC060 640609 641505 540009 540909 QNH3001INS
  TEMPO 2903/2908 14014G21KT 8000 SHRA BR SCT020 BKN035 OVC060
  FM290800 14020G30KT 9999 -RA SCT005 BKN012 OVC035 640609 641505 540009 540909 QNH2984INS
  TEMPO 2909/2915 15014G24KT 6000 SHRA BR SCT015 BKN035 OVC050
  FM291600 14018G26KT 9999 VCSH SCT020 BKN035 OVC090 640609 641503 540009 QNH2982INS
  FM292100 17013G21KT 9999 VCSH SCT025 BKN040 BKN090 BKN250 640609 641503 540009 QNH2989INS T14/2823Z T07/2913Z FS30046
NW 62 291' KCLM TAF KCLM 282320Z 2900/2924 VRB04KT P6SM -RA OVC040
  FM290700 09005KT 4SM RA BR OVC025
  FM291400 24012G22KT P6SM -RA BKN015 OVC030
  FM291800 28015G25KT P6SM VCSH SCT020 BKN040
SW 72 17' KHQM TAF
  AMD KHQM 290431Z 2905/2924 15013KT 5SM -RA BR SCT015 OVC030
  TEMPO 2905/2907 BKN015 OVC030
  FM290700 16015G25KT 3SM RA BR OVC012
  FM291200 22012G22KT P6SM -RA BKN015 OVC030
  FM291700 27012G22KT P6SM VCSH SCT020 BKN040
N 81 170' KBLI TAF
  AMD KBLI 290432Z 2905/2924 15011KT P6SM -RA BKN025 OVC050
  FM291000 16012G22KT 4SM RA BR OVC012
  FM291500 18012G22KT P6SM -RA BKN015 OVC030
  FM292000 22012G22KT P6SM VCSH SCT020 BKN040
E 85 1248' KEAT KEAT 282324Z 2900/2924 29008KT P6SM FEW060 SCT100 OVC150
  FM290400 30006KT P6SM BKN080
  FM290700 30003KT P6SM -RA BKN050 OVC080
  FM290900 VRB05KT P6SM -RA OVC035
  FM291400 15005KT P6SM SCT015 OVC060
  FM292000 VRB04KT P6SM SCT050 BKN080
SE 89 1098' KYKM TAF KYKM 282320Z 2900/2924 23009KT P6SM SCT070 BKN110
  FM290300 22006KT P6SM VCSH BKN070 OVC100
  FM290700 21004KT P6SM -RA SCT045 OVC060
  FM291600 19005KT P6SM VCSH BKN050 BKN070
  FM292000 23010KT P6SM SCT050 BKN070
Area forecast:
000
FAUS46 KKCI 290245
FA6W  
SFOC FA 290245
SYNOPSIS AND VFR CLDS/WX
SYNOPSIS VALID UNTIL 292100
CLDS/WX VALID UNTIL 291500...OTLK VALID 291500-292100
WA OR CA AND CSTL WTRS
.
SEE AIRMET SIERRA FOR IFR CONDS AND MTN OBSCN.
TS IMPLY SEV OR GTR TURB SEV ICE LLWS AND IFR CONDS.
NON MSL HGTS DENOTED BY AGL OR CIG.
.
SYNOPSIS...ALF...03Z UPR RDG OVR THE ERN PAC. MOD-STG WLY-NWLY
WND FLOW ACRS WA AND ADJACENT CSTL WTRS. 21Z MOD WLY FLOW OVR
WA...WRN OR AND NW CA AND ADJACENT CSTL WTRS. AT THE SFC...03Z
WRMFNT EXTDG W FM 140W HQM. 21Z CDFNT ALG AN HUH-60N ONP-180NW
FOT LN.
.
WA CASCDS WWD
CSTLN...BKN020 OVC040 LYRD FL250. OCNL -RA. 07Z OVC015. VIS 3SM
RA BR. WND SE G25KT. OTLK...MVFR CIG RA 17Z VFR SHRA.
RMNDR...SCT025 OVC035 LYRD FL350. OCNL VIS 5SM -RA BR. 10Z
OVC020. VIS 4SM RA BR. OTLK...MVFR CIG RA.
.
WA E OF CASCDS
W HLF...BKN080 LYRD FL350. ISOL -SHRA. BECMG 0709 BKN045. OCNL
-RA. OTLK...VFR SHRA.
E HLF...SCT045 BKN070 LYRD FL350. OCNL -RA. BECMG 0811 BKN040
OVC070. OCNL VIS 5SM -RA BR. OTLK...MVFR CIG RA BR.
.
OR CASCDS WWD
CSTLN...
  N HLF...BKN020 OVC035 LYRD FL400. VIS 5SM -RA BR. WND S G25KT.
    BECMG 0609 OVC020. VIS 4SM RA BR. WND S 25G35KT. OTLK...MVFR
    CIG SHRA WND.
  S HLF...OVC060 TOPS FL250. 06Z BKN035 OVC050. OCNL -RA.
    OTLK...VFR RA WND 19Z MVFR CIG RA.
SWRN INTR...SCT050 BKN080 TOPS 110. OTLK...VFR 19Z RA.
RMNDR...BKN070 OVC100 TOPS FL250. OCNL -RA. BECMG 0912
OVC025-030. OCNL VIS 5SM -RA BR. OTLK...MVFR CIG SHRA.
.
OR E OF CASCDS
COLUMBIA BASIN...SCT050 OVC080 LYRD FL350. WDLY SCT -SHRA WRN
SXNS. BECMG 0709 SCT045 OVC070. OCNL -RA. OTLK...VFR RA.
RMNDR N HLF...SCT050 BKN070 LYRD FL280. WDLY SCT -SHRA. BECMG
1013 OVC060-070 LYRD FL350. SCT -SHRA. OTLK...VFR SHRA WRN
SXNS...MVFR CIG SHRA ERN SXNS.
S HLF...SCT-BKN090 LYRD FL250. BECMG 1214 BKN070 OVC090.
OTLK...MVFR CIG SHRA WRN SXNS...VFR SHRA ERN SXNS.
.
NRN CA...STS-SAC-TVL LN NWD
CSTL SXNS...
  CSTLN...BKN-SCT080 TOPS 100 BKN CI. BECMG 1214 SCT035
    SCT-BKN050 BKN080 LYRD FL220. OCNL -RA. OTLK...VFR RA THRUT
    18Z MVFR RA NRN SXNS.
  INLAND...SCT CI. OTLK..VFR.
SAC VLY...SKC. OCNL SCT CI. OTLK...VFR.
MTNS...SCT CI. 12Z SCT100 SCT-BKN150 TOPS 170 BKN CI. OTLK...VFR
THRUT...SHRA NRN SXNS.
.
CNTRL CA
CSTL SXNS...SKC. OCNL SCT CI. OTLK...VFR.
SAN JOAQUIN VLY...SKC. TIL 05Z OCNL SCT050. OTLK...VFR.
MTNS...SKC. OCNL SCT CI. OTLK...VFR.
.
SRN CA..VBG-NID-60NNW BIH LN SWD
CSTL SXNS...SKC. OCNL SCT CI. OTLK...VFR.
INTR MTNS/DESERTS...SKC. OTLK...VFR.
.
CSTL WTRS
WA/NRN OR...OVC015 LYRD FL400. VIS 4SM RA. WND S 25G35KT. BECMG
1013 WND SW G25KT. OTLK...MVFR CIG SHRA.
SRN OR/NRN CA...BKN050-060 TOPS 100 BKN CI. BECMG 0609 SCT015
BKN040-050 BKN150 TOPS FL220. OCNL -RA. OTLK...MVFR CIG RA NRN
SXNS...VFR RA SRN SXNS.
CNTRL-SRN CA...SKC. WND NW G25KT. OTLK...VFR.
....

Shortcut to this page: http://wxbay.com.

Data may contain errors.